createdAt,value
2018-04-04T00:00:17.484Z,946.79
2018-04-04T00:01:17.557Z,946.77
2018-04-04T00:02:17.530Z,946.76
2018-04-04T00:03:17.553Z,946.78
2018-04-04T00:04:17.578Z,946.73
2018-04-04T00:05:17.597Z,946.75
2018-04-04T00:06:17.719Z,946.73
2018-04-04T00:07:17.641Z,946.75
2018-04-04T00:08:17.666Z,946.76
2018-04-04T00:09:17.690Z,946.75
2018-04-04T00:10:17.708Z,946.75
2018-04-04T00:11:17.729Z,946.75
2018-04-04T00:12:17.753Z,946.73
2018-04-04T00:13:17.776Z,946.73
2018-04-04T00:14:17.798Z,946.72
2018-04-04T00:15:17.821Z,946.73
2018-04-04T00:16:17.897Z,946.67
2018-04-04T00:17:17.882Z,946.67
2018-04-04T00:18:17.888Z,946.65
2018-04-04T00:19:17.923Z,946.67
2018-04-04T00:20:17.933Z,946.66
2018-04-04T00:21:17.954Z,946.64
2018-04-04T00:22:17.976Z,946.69
2018-04-04T00:23:17.998Z,946.65
2018-04-04T00:24:18.021Z,946.65
2018-04-04T00:25:18.042Z,946.61
2018-04-04T00:26:18.068Z,946.65
2018-04-04T00:27:18.089Z,946.65
2018-04-04T00:28:18.110Z,946.67
2018-04-04T00:29:18.132Z,946.69
2018-04-04T00:30:18.153Z,946.74
2018-04-04T00:31:18.226Z,946.72
2018-04-04T00:32:18.199Z,946.77
2018-04-04T00:33:18.224Z,946.76
2018-04-04T00:34:18.243Z,946.82
2018-04-04T00:35:18.266Z,946.78
2018-04-04T00:36:18.338Z,946.82
2018-04-04T00:37:18.309Z,946.78
2018-04-04T00:38:18.366Z,946.81
2018-04-04T00:39:18.356Z,946.81
2018-04-04T00:40:18.381Z,946.81
2018-04-04T00:41:18.399Z,946.82
2018-04-04T00:42:18.427Z,946.87
2018-04-04T00:43:18.444Z,946.84
2018-04-04T00:44:18.467Z,946.8
2018-04-04T00:45:18.493Z,946.83
2018-04-04T00:46:18.512Z,946.87
2018-04-04T00:47:18.533Z,946.83
2018-04-04T00:48:18.556Z,946.85
2018-04-04T00:49:18.580Z,946.81
2018-04-04T00:50:18.599Z,946.8
2018-04-04T00:51:18.679Z,946.85
2018-04-04T00:52:18.646Z,946.82
2018-04-04T00:53:18.668Z,946.81
2018-04-04T00:54:18.690Z,946.8
2018-04-04T00:55:18.712Z,946.8
2018-04-04T00:56:18.735Z,946.75
2018-04-04T00:57:18.758Z,946.75
2018-04-04T00:58:18.780Z,946.75
2018-04-04T00:59:18.801Z,946.75
2018-04-04T01:00:18.824Z,946.82
2018-04-04T01:01:18.846Z,946.79
2018-04-04T01:02:18.869Z,946.79
2018-04-04T01:03:18.897Z,946.82
2018-04-04T01:04:18.914Z,946.8
2018-04-04T01:05:18.939Z,946.85
2018-04-04T01:06:19.108Z,946.82
2018-04-04T01:07:18.979Z,946.84
2018-04-04T01:08:19.002Z,946.86
2018-04-04T01:09:19.024Z,946.81
2018-04-04T01:10:19.046Z,946.8
2018-04-04T01:11:19.069Z,946.82
2018-04-04T01:12:19.094Z,946.85
2018-04-04T01:13:19.114Z,946.83
2018-04-04T01:14:19.137Z,946.85
2018-04-04T01:15:19.158Z,946.87
2018-04-04T01:16:19.181Z,946.9
2018-04-04T01:17:19.207Z,946.83
2018-04-04T01:18:19.225Z,946.87
2018-04-04T01:19:19.247Z,946.89
2018-04-04T01:20:19.269Z,946.87
2018-04-04T01:21:19.342Z,946.89
2018-04-04T01:22:19.314Z,946.88
2018-04-04T01:23:19.335Z,946.88
2018-04-04T01:24:19.357Z,946.87
2018-04-04T01:25:19.381Z,946.86
2018-04-04T01:26:19.403Z,946.87
2018-04-04T01:27:19.426Z,946.91
2018-04-04T01:28:19.446Z,946.86
2018-04-04T01:29:19.468Z,946.87
2018-04-04T01:30:19.493Z,946.89
2018-04-04T01:31:19.514Z,946.85
2018-04-04T01:32:19.531Z,946.85
2018-04-04T01:33:19.557Z,946.88
2018-04-04T01:34:19.601Z,946.87
2018-04-04T01:35:19.598Z,946.9
2018-04-04T01:36:19.671Z,946.84
2018-04-04T01:37:19.642Z,946.88
2018-04-04T01:38:19.665Z,946.9
2018-04-04T01:39:19.688Z,946.86
2018-04-04T01:40:19.710Z,946.86
2018-04-04T01:41:19.733Z,946.83
2018-04-04T01:42:19.755Z,946.87
2018-04-04T01:43:19.775Z,946.87
2018-04-04T01:44:19.796Z,946.89
2018-04-04T01:45:19.819Z,946.9
2018-04-04T01:46:19.841Z,946.97
2018-04-04T01:47:19.864Z,946.91
2018-04-04T01:48:19.886Z,946.89
2018-04-04T01:49:19.908Z,946.87
2018-04-04T01:50:19.930Z,946.91
2018-04-04T01:51:20.001Z,946.91
2018-04-04T01:52:19.973Z,946.93
2018-04-04T01:53:19.995Z,946.93
2018-04-04T01:54:20.017Z,946.99
2018-04-04T01:55:20.040Z,946.99
2018-04-04T01:56:20.062Z,947.01
2018-04-04T01:57:20.104Z,947.02
2018-04-04T01:58:20.105Z,947.04
2018-04-04T01:59:20.127Z,947.04
2018-04-04T02:00:20.150Z,947.1
2018-04-04T02:01:20.173Z,947.09
2018-04-04T02:02:20.193Z,947.07
2018-04-04T02:03:20.216Z,947.09
2018-04-04T02:04:20.240Z,947.06
2018-04-04T02:05:20.258Z,947.04
2018-04-04T02:06:20.333Z,947.09
2018-04-04T02:07:20.303Z,947.09
2018-04-04T02:08:20.324Z,947.04
2018-04-04T02:09:20.347Z,947.06
2018-04-04T02:10:20.368Z,947.09
2018-04-04T02:11:20.390Z,947.06
2018-04-04T02:12:20.412Z,947.12
2018-04-04T02:13:20.435Z,947.09
2018-04-04T02:14:20.456Z,947.07
2018-04-04T02:15:20.478Z,947.12
2018-04-04T02:16:20.499Z,947.12
2018-04-04T02:17:20.521Z,947.12
2018-04-04T02:18:20.544Z,947.11
2018-04-04T02:19:20.567Z,947.11
2018-04-04T02:20:20.607Z,947.07
2018-04-04T02:21:20.611Z,947.09
2018-04-04T02:22:20.631Z,947.13
2018-04-04T02:23:20.653Z,947.13
2018-04-04T02:24:20.726Z,947.09
2018-04-04T02:25:20.697Z,947.11
2018-04-04T02:26:20.719Z,947.08
2018-04-04T02:27:20.740Z,947.11
2018-04-04T02:28:20.765Z,947.09
2018-04-04T02:29:20.835Z,947.08
2018-04-04T02:30:20.836Z,947.08
2018-04-04T02:31:20.828Z,947.08
2018-04-04T02:32:20.851Z,947.04
2018-04-04T02:33:20.876Z,947.04
2018-04-04T02:34:20.895Z,947.04
2018-04-04T02:35:20.914Z,947.01
2018-04-04T02:36:20.939Z,947.02
2018-04-04T02:37:20.959Z,946.99
2018-04-04T02:38:20.978Z,946.99
2018-04-04T02:39:21.001Z,947.05
2018-04-04T02:40:21.023Z,946.99
2018-04-04T02:41:21.044Z,946.99
2018-04-04T02:42:21.067Z,947.01
2018-04-04T02:43:21.106Z,946.97
2018-04-04T02:44:21.159Z,946.96
2018-04-04T02:45:21.134Z,946.97
2018-04-04T02:46:21.152Z,946.96
2018-04-04T02:47:21.174Z,946.99
2018-04-04T02:48:21.194Z,946.99
2018-04-04T02:49:21.218Z,947
2018-04-04T02:50:21.238Z,946.98
2018-04-04T02:51:21.261Z,947.03
2018-04-04T02:52:21.285Z,947.02
2018-04-04T02:53:21.304Z,947
2018-04-04T02:54:21.325Z,947.02
2018-04-04T02:55:21.344Z,946.98
2018-04-04T02:56:21.365Z,947
2018-04-04T02:57:21.386Z,947.01
2018-04-04T02:58:21.409Z,947.02
2018-04-04T02:59:21.431Z,947
2018-04-04T03:00:21.454Z,947
2018-04-04T03:01:21.475Z,947
2018-04-04T03:02:21.500Z,946.95
2018-04-04T03:03:21.522Z,946.96
2018-04-04T03:04:21.544Z,946.99
2018-04-04T03:05:21.565Z,947.04
2018-04-04T03:06:21.610Z,947.02
2018-04-04T03:07:21.607Z,947.04
2018-04-04T03:08:21.629Z,947.07
2018-04-04T03:09:21.651Z,947.02
2018-04-04T03:10:21.672Z,947.01
2018-04-04T03:11:21.694Z,947.05
2018-04-04T03:12:21.716Z,947.03
2018-04-04T03:13:21.737Z,947.05
2018-04-04T03:14:21.827Z,947.04
2018-04-04T03:15:21.784Z,947.03
2018-04-04T03:16:21.805Z,947.05
2018-04-04T03:17:21.826Z,947.07
2018-04-04T03:18:21.847Z,947.1
2018-04-04T03:19:21.870Z,947.11
2018-04-04T03:20:21.891Z,947.13
2018-04-04T03:21:21.912Z,947.12
2018-04-04T03:22:21.934Z,947.16
2018-04-04T03:23:21.957Z,947.22
2018-04-04T03:24:21.979Z,947.26
2018-04-04T03:25:22.000Z,947.19
2018-04-04T03:26:22.022Z,947.21
2018-04-04T03:27:22.045Z,947.19
2018-04-04T03:28:22.067Z,947.22
2018-04-04T03:29:22.138Z,947.24
2018-04-04T03:30:22.111Z,947.29
2018-04-04T03:31:22.140Z,947.29
2018-04-04T03:32:22.154Z,947.33
2018-04-04T03:33:22.176Z,947.35
2018-04-04T03:34:22.198Z,947.42
2018-04-04T03:35:22.220Z,947.38
2018-04-04T03:36:22.244Z,947.39
2018-04-04T03:37:22.263Z,947.4
2018-04-04T03:38:22.283Z,947.37
2018-04-04T03:39:22.306Z,947.37
2018-04-04T03:40:22.327Z,947.36
2018-04-04T03:41:22.349Z,947.34
2018-04-04T03:42:22.372Z,947.37
2018-04-04T03:43:22.391Z,947.35
2018-04-04T03:44:22.466Z,947.32
2018-04-04T03:45:22.435Z,947.32
2018-04-04T03:46:22.461Z,947.3
2018-04-04T03:47:22.479Z,947.31
2018-04-04T03:48:22.500Z,947.3
2018-04-04T03:49:22.520Z,947.35
2018-04-04T03:50:22.542Z,947.32
2018-04-04T03:51:22.563Z,947.32
2018-04-04T03:52:22.585Z,947.32
2018-04-04T03:53:22.613Z,947.33
2018-04-04T03:54:22.628Z,947.3
2018-04-04T03:55:22.649Z,947.3
2018-04-04T03:56:22.673Z,947.27
2018-04-04T03:57:22.695Z,947.33
2018-04-04T03:58:22.712Z,947.35
2018-04-04T03:59:22.783Z,947.3
2018-04-04T04:00:22.754Z,947.35
2018-04-04T04:01:22.775Z,947.32
2018-04-04T04:02:22.796Z,947.29
2018-04-04T04:03:22.817Z,947.3
2018-04-04T04:04:22.838Z,947.27
2018-04-04T04:05:22.857Z,947.28
2018-04-04T04:06:22.884Z,947.29
2018-04-04T04:07:22.909Z,947.28
2018-04-04T04:08:22.923Z,947.23
2018-04-04T04:09:22.944Z,947.27
2018-04-04T04:10:22.965Z,947.3
2018-04-04T04:11:22.986Z,947.35
2018-04-04T04:12:23.008Z,947.34
2018-04-04T04:13:23.030Z,947.27
2018-04-04T04:14:23.100Z,947.32
2018-04-04T04:15:23.072Z,947.31
2018-04-04T04:16:23.094Z,947.28
2018-04-04T04:17:23.113Z,947.3
2018-04-04T04:18:23.134Z,947.28
2018-04-04T04:19:23.155Z,947.29
2018-04-04T04:20:23.177Z,947.27
2018-04-04T04:21:23.198Z,947.24
2018-04-04T04:22:23.220Z,947.22
2018-04-04T04:23:23.247Z,947.23
2018-04-04T04:24:23.262Z,947.25
2018-04-04T04:25:23.282Z,947.24
2018-04-04T04:26:23.306Z,947.26
2018-04-04T04:27:23.325Z,947.27
2018-04-04T04:28:23.352Z,947.26
2018-04-04T04:29:23.420Z,947.25
2018-04-04T04:30:23.397Z,947.26
2018-04-04T04:31:23.461Z,947.24
2018-04-04T04:32:23.439Z,947.22
2018-04-04T04:33:23.455Z,947.22
2018-04-04T04:34:23.477Z,947.22
2018-04-04T04:35:23.505Z,947.2
2018-04-04T04:36:23.521Z,947.19
2018-04-04T04:37:23.541Z,947.21
2018-04-04T04:38:23.562Z,947.23
2018-04-04T04:39:23.582Z,947.2
2018-04-04T04:40:23.606Z,947.2
2018-04-04T04:41:23.626Z,947.19
2018-04-04T04:42:23.646Z,947.18
2018-04-04T04:43:23.668Z,947.17
2018-04-04T04:44:23.741Z,947.21
2018-04-04T04:45:23.713Z,947.21
2018-04-04T04:46:23.738Z,947.22
2018-04-04T04:47:23.756Z,947.21
2018-04-04T04:48:23.779Z,947.21
2018-04-04T04:49:23.798Z,947.25
2018-04-04T04:50:23.820Z,947.25
2018-04-04T04:51:23.843Z,947.24
2018-04-04T04:52:23.862Z,947.23
2018-04-04T04:53:23.901Z,947.23
2018-04-04T04:54:23.907Z,947.26
2018-04-04T04:55:23.928Z,947.24
2018-04-04T04:56:23.956Z,947.24
2018-04-04T04:57:23.971Z,947.25
2018-04-04T04:58:23.993Z,947.27
2018-04-04T04:59:24.065Z,947.28
2018-04-04T05:00:24.036Z,947.28
2018-04-04T05:01:24.059Z,947.28
2018-04-04T05:02:24.076Z,947.29
2018-04-04T05:03:24.096Z,947.28
2018-04-04T05:04:24.122Z,947.27
2018-04-04T05:05:24.139Z,947.26
2018-04-04T05:06:24.163Z,947.28
2018-04-04T05:07:24.186Z,947.24
2018-04-04T05:08:24.207Z,947.22
2018-04-04T05:09:24.226Z,947.21
2018-04-04T05:10:24.248Z,947.21
2018-04-04T05:11:24.269Z,947.24
2018-04-04T05:12:24.291Z,947.19
2018-04-04T05:13:24.315Z,947.2
2018-04-04T05:14:24.387Z,947.21
2018-04-04T05:15:24.359Z,947.2
2018-04-04T05:16:24.399Z,947.12
2018-04-04T05:17:24.399Z,947.15
2018-04-04T05:18:24.422Z,947.17
2018-04-04T05:19:24.443Z,947.17
2018-04-04T05:20:24.468Z,947.16
2018-04-04T05:21:24.489Z,947.16
2018-04-04T05:22:24.510Z,947.17
2018-04-04T05:23:24.533Z,947.18
2018-04-04T05:24:24.554Z,947.19
2018-04-04T05:25:24.576Z,947.18
2018-04-04T05:26:24.598Z,947.22
2018-04-04T05:27:24.615Z,947.19
2018-04-04T05:28:24.641Z,947.22
2018-04-04T05:29:24.711Z,947.21
2018-04-04T05:30:24.683Z,947.21
2018-04-04T05:31:24.706Z,947.2
2018-04-04T05:32:24.728Z,947.16
2018-04-04T05:33:24.748Z,947.16
2018-04-04T05:34:24.770Z,947.18
2018-04-04T05:35:24.823Z,947.17
2018-04-04T05:36:24.817Z,947.21
2018-04-04T05:37:24.836Z,947.19
2018-04-04T05:38:24.857Z,947.17
2018-04-04T05:39:24.904Z,947.16
2018-04-04T05:40:24.900Z,947.17
2018-04-04T05:41:24.922Z,947.13
2018-04-04T05:42:24.945Z,947.13
2018-04-04T05:43:24.967Z,947.14
2018-04-04T05:44:25.100Z,947.1
2018-04-04T05:45:25.008Z,947.1
2018-04-04T05:46:25.031Z,947.1
2018-04-04T05:47:25.052Z,947.09
2018-04-04T05:48:25.074Z,947.05
2018-04-04T05:49:25.099Z,947.05
2018-04-04T05:50:25.118Z,947.05
2018-04-04T05:51:25.139Z,947.08
2018-04-04T05:52:25.161Z,947.08
2018-04-04T05:53:25.183Z,947.07
2018-04-04T05:54:25.210Z,947.06
2018-04-04T05:55:25.228Z,947.1
2018-04-04T05:56:25.249Z,947.11
2018-04-04T05:57:25.269Z,947.1
2018-04-04T05:58:25.297Z,947.1
2018-04-04T05:59:25.362Z,947.09
2018-04-04T06:00:25.335Z,947.12
2018-04-04T06:01:25.358Z,947.1
2018-04-04T06:02:25.378Z,947.12
2018-04-04T06:03:25.400Z,947.11
2018-04-04T06:04:25.473Z,947.1
2018-04-04T06:05:25.445Z,947.11
2018-04-04T06:06:25.466Z,947.1
2018-04-04T06:07:25.488Z,947.08
2018-04-04T06:08:25.510Z,947.08
2018-04-04T06:09:25.539Z,947.08
2018-04-04T06:10:25.553Z,947.09
2018-04-04T06:11:25.576Z,947.06
2018-04-04T06:12:25.597Z,947.05
2018-04-04T06:13:25.620Z,947.01
2018-04-04T06:14:25.657Z,947.05
2018-04-04T06:15:25.664Z,947.06
2018-04-04T06:16:25.688Z,947.07
2018-04-04T06:17:25.708Z,947.08
2018-04-04T06:18:25.730Z,947.1
2018-04-04T06:19:25.752Z,947.09
2018-04-04T06:20:25.773Z,947.09
2018-04-04T06:21:25.801Z,947.11
2018-04-04T06:22:25.819Z,947.13
2018-04-04T06:23:25.891Z,947.19
2018-04-04T06:24:25.862Z,947.22
2018-04-04T06:25:25.908Z,947.25
2018-04-04T06:26:25.907Z,947.28
2018-04-04T06:27:25.930Z,947.3
2018-04-04T06:28:25.950Z,947.3
2018-04-04T06:29:25.995Z,947.31
2018-04-04T06:30:25.995Z,947.28
2018-04-04T06:31:26.019Z,947.31
2018-04-04T06:32:26.040Z,947.28
2018-04-04T06:33:26.064Z,947.27
2018-04-04T06:34:26.086Z,947.23
2018-04-04T06:35:26.107Z,947.23
2018-04-04T06:36:26.132Z,947.24
2018-04-04T06:37:26.152Z,947.21
2018-04-04T06:38:26.224Z,947.2
2018-04-04T06:39:26.197Z,947.19
2018-04-04T06:40:26.220Z,947.21
2018-04-04T06:41:26.242Z,947.19
2018-04-04T06:42:26.265Z,947.17
2018-04-04T06:43:26.288Z,947.19
2018-04-04T06:44:26.316Z,947.19
2018-04-04T06:45:26.333Z,947.2
2018-04-04T06:46:26.357Z,947.21
2018-04-04T06:47:26.378Z,947.18
2018-04-04T06:48:26.412Z,947.22
2018-04-04T06:49:26.424Z,947.16
2018-04-04T06:50:26.445Z,947.18
2018-04-04T06:51:26.469Z,947.14
2018-04-04T06:52:26.490Z,947.13
2018-04-04T06:53:26.563Z,947.12
2018-04-04T06:54:26.535Z,947.09
2018-04-04T06:55:26.557Z,947.03
2018-04-04T06:56:26.582Z,947.05
2018-04-04T06:57:26.604Z,947.02
2018-04-04T06:58:26.627Z,947.06
2018-04-04T06:59:26.649Z,947.03
2018-04-04T07:00:26.672Z,947
2018-04-04T07:01:26.693Z,947.01
2018-04-04T07:02:26.720Z,946.99
2018-04-04T07:03:26.741Z,946.97
2018-04-04T07:04:26.763Z,946.98
2018-04-04T07:05:26.788Z,946.96
2018-04-04T07:06:26.811Z,946.99
2018-04-04T07:07:26.942Z,946.96
2018-04-04T07:08:27.006Z,946.98
2018-04-04T07:09:26.876Z,946.95
2018-04-04T07:10:26.900Z,946.93
2018-04-04T07:11:26.948Z,946.91
2018-04-04T07:12:26.947Z,946.96
2018-04-04T07:13:26.971Z,946.92
2018-04-04T07:14:27.038Z,946.93
2018-04-04T07:15:27.017Z,946.91
2018-04-04T07:16:27.042Z,946.94
2018-04-04T07:17:27.065Z,946.94
2018-04-04T07:18:27.089Z,946.93
2018-04-04T07:19:27.127Z,946.93
2018-04-04T07:20:27.134Z,946.89
2018-04-04T07:21:27.159Z,946.89
2018-04-04T07:22:27.180Z,946.86
2018-04-04T07:23:27.255Z,946.86
2018-04-04T07:24:27.227Z,946.84
2018-04-04T07:25:27.252Z,946.89
2018-04-04T07:26:27.275Z,946.85
2018-04-04T07:27:27.298Z,946.89
2018-04-04T07:28:27.421Z,946.92
2018-04-04T07:29:27.346Z,946.94
2018-04-04T07:30:27.372Z,946.96
2018-04-04T07:31:27.396Z,946.98
2018-04-04T07:32:27.416Z,947.04
2018-04-04T07:33:27.441Z,947.04
2018-04-04T07:34:27.464Z,947.04
2018-04-04T07:35:27.489Z,947.09
2018-04-04T07:36:27.514Z,947.07
2018-04-04T07:37:27.535Z,947.06
2018-04-04T07:38:27.709Z,947.01
2018-04-04T07:39:27.584Z,947.01
2018-04-04T07:40:27.608Z,947
2018-04-04T07:41:27.631Z,946.98
2018-04-04T07:42:27.655Z,947
2018-04-04T07:43:27.703Z,946.95
2018-04-04T07:44:27.704Z,946.91
2018-04-04T07:45:27.728Z,946.92
2018-04-04T07:46:27.754Z,946.93
2018-04-04T07:47:27.776Z,946.87
2018-04-04T07:48:27.901Z,946.87
2018-04-04T07:49:27.826Z,946.87
2018-04-04T07:50:27.851Z,946.88
2018-04-04T07:51:27.873Z,946.85
2018-04-04T07:52:27.899Z,946.85
2018-04-04T07:53:27.973Z,946.87
2018-04-04T07:54:27.947Z,946.91
2018-04-04T07:55:27.971Z,946.92
2018-04-04T07:56:27.994Z,946.94
2018-04-04T07:57:28.021Z,946.97
2018-04-04T07:58:28.066Z,946.96
2018-04-04T07:59:28.068Z,946.94
2018-04-04T08:00:28.093Z,946.97
2018-04-04T08:01:28.118Z,946.95
2018-04-04T08:02:28.143Z,946.98
2018-04-04T08:03:28.165Z,946.99
2018-04-04T08:04:28.190Z,946.96
2018-04-04T08:05:28.215Z,946.91
2018-04-04T08:06:28.240Z,947.01
2018-04-04T08:07:28.264Z,947
2018-04-04T08:08:28.339Z,946.99
2018-04-04T08:09:28.313Z,946.96
2018-04-04T08:10:28.337Z,946.96
2018-04-04T08:11:28.362Z,946.93
2018-04-04T08:12:28.387Z,946.94
2018-04-04T08:13:28.411Z,946.98
2018-04-04T08:14:28.433Z,946.94
2018-04-04T08:15:28.459Z,946.96
2018-04-04T08:16:28.484Z,946.97
2018-04-04T08:17:28.506Z,947.02
2018-04-04T08:18:28.532Z,947
2018-04-04T08:19:28.557Z,946.95
2018-04-04T08:20:28.581Z,946.99
2018-04-04T08:21:28.606Z,946.93
2018-04-04T08:22:28.631Z,946.93
2018-04-04T08:23:28.704Z,946.98
2018-04-04T08:24:28.681Z,946.91
2018-04-04T08:25:28.704Z,946.95
2018-04-04T08:26:28.729Z,946.99
2018-04-04T08:27:28.753Z,946.99
2018-04-04T08:28:28.776Z,946.96
2018-04-04T08:29:28.804Z,947.03
2018-04-04T08:30:28.828Z,946.98
2018-04-04T08:31:28.853Z,947.02
2018-04-04T08:32:28.875Z,947.02
2018-04-04T08:33:28.903Z,947.04
2018-04-04T08:34:29.014Z,947.02
2018-04-04T08:35:28.953Z,947.08
2018-04-04T08:36:29.032Z,947.02
2018-04-04T08:37:29.004Z,947.05
2018-04-04T08:38:29.028Z,947.01
2018-04-04T08:39:29.054Z,947.01
2018-04-04T08:40:29.078Z,946.97
2018-04-04T08:41:29.106Z,946.99
2018-04-04T08:42:29.129Z,946.95
2018-04-04T08:43:29.153Z,946.94
2018-04-04T08:44:29.179Z,946.9
2018-04-04T08:45:29.223Z,946.9
2018-04-04T08:46:29.230Z,946.84
2018-04-04T08:47:29.269Z,946.85
2018-04-04T08:48:29.280Z,946.87
2018-04-04T08:49:29.306Z,946.89
2018-04-04T08:50:29.329Z,946.86
2018-04-04T08:51:29.406Z,946.88
2018-04-04T08:52:29.383Z,946.87
2018-04-04T08:53:29.426Z,946.82
2018-04-04T08:54:29.430Z,946.8
2018-04-04T08:55:29.457Z,946.78
2018-04-04T08:56:29.483Z,946.8
2018-04-04T08:57:29.510Z,946.8
2018-04-04T08:58:29.536Z,946.81
2018-04-04T08:59:29.577Z,946.8
2018-04-04T09:00:29.613Z,946.77
2018-04-04T09:01:29.624Z,946.72
2018-04-04T09:02:29.655Z,946.73
2018-04-04T09:03:29.675Z,946.71
2018-04-04T09:04:29.702Z,946.72
2018-04-04T09:05:29.726Z,946.67
2018-04-04T09:06:29.804Z,946.69
2018-04-04T09:07:29.778Z,946.72
2018-04-04T09:08:29.805Z,946.71
2018-04-04T09:09:29.831Z,946.69
2018-04-04T09:10:29.857Z,946.71
2018-04-04T09:11:29.883Z,946.62
2018-04-04T09:12:29.907Z,946.6
2018-04-04T09:13:29.933Z,946.67
2018-04-04T09:14:29.972Z,946.61
2018-04-04T09:15:29.985Z,946.61
2018-04-04T09:16:30.119Z,946.64
2018-04-04T09:17:30.038Z,946.63
2018-04-04T09:18:30.065Z,946.6
2018-04-04T09:19:30.092Z,946.61
2018-04-04T09:20:30.119Z,946.55
2018-04-04T09:21:30.195Z,946.53
2018-04-04T09:22:30.173Z,946.49
2018-04-04T09:23:30.198Z,946.57
2018-04-04T09:24:30.227Z,946.58
2018-04-04T09:25:30.253Z,946.51
2018-04-04T09:26:30.281Z,946.58
2018-04-04T09:27:30.308Z,946.6
2018-04-04T09:28:30.336Z,946.52
2018-04-04T09:29:30.363Z,946.52
2018-04-04T09:30:30.391Z,946.47
2018-04-04T09:31:30.426Z,946.49
2018-04-04T09:32:30.480Z,946.48
2018-04-04T09:33:30.475Z,946.47
2018-04-04T09:34:30.502Z,946.43
2018-04-04T09:35:30.531Z,946.5
2018-04-04T09:36:30.617Z,946.53
2018-04-04T09:37:30.590Z,946.51
2018-04-04T09:38:30.618Z,946.46
2018-04-04T09:39:30.647Z,946.48
2018-04-04T09:40:30.678Z,946.48
2018-04-04T09:41:30.805Z,946.48
2018-04-04T09:42:30.736Z,946.47
2018-04-04T09:43:30.765Z,946.49
2018-04-04T09:44:30.795Z,946.43
2018-04-04T09:45:30.824Z,946.41
2018-04-04T09:46:30.855Z,946.35
2018-04-04T09:47:30.883Z,946.36
2018-04-04T09:48:30.918Z,946.36
2018-04-04T09:49:30.945Z,946.34
2018-04-04T09:50:30.985Z,946.36
2018-04-04T09:51:31.057Z,946.37
2018-04-04T09:52:31.035Z,946.38
2018-04-04T09:53:31.072Z,946.34
2018-04-04T09:54:31.097Z,946.38
2018-04-04T09:55:31.129Z,946.37
2018-04-04T09:56:31.160Z,946.35
2018-04-04T09:57:31.194Z,946.33
2018-04-04T09:58:31.223Z,946.33
2018-04-04T09:59:31.261Z,946.31
2018-04-04T10:00:31.290Z,946.25
2018-04-04T10:01:31.316Z,946.24
2018-04-04T10:02:31.349Z,946.27
2018-04-04T10:03:31.378Z,946.25
2018-04-04T10:04:31.412Z,946.23
2018-04-04T10:05:31.446Z,946.15
2018-04-04T10:06:31.529Z,946.18
2018-04-04T10:07:31.509Z,946.19
2018-04-04T10:08:31.536Z,946.17
2018-04-04T10:09:31.567Z,946.22
2018-04-04T10:10:31.598Z,946.24
2018-04-04T10:11:31.628Z,946.22
2018-04-04T10:12:31.659Z,946.19
2018-04-04T10:13:31.691Z,946.27
2018-04-04T10:14:31.722Z,946.22
2018-04-04T10:15:31.752Z,946.25
2018-04-04T10:16:31.783Z,946.24
2018-04-04T10:17:31.817Z,946.19
2018-04-04T10:18:31.845Z,946.18
2018-04-04T10:19:31.877Z,946.23
2018-04-04T10:20:31.906Z,946.16
2018-04-04T10:21:31.988Z,946.21
2018-04-04T10:22:31.969Z,946.21
2018-04-04T10:23:31.998Z,946.18
2018-04-04T10:24:32.032Z,946.19
2018-04-04T10:25:32.060Z,946.15
2018-04-04T10:26:32.097Z,946.17
2018-04-04T10:27:32.128Z,946.14
2018-04-04T10:28:32.155Z,946.25
2018-04-04T10:29:32.185Z,946.22
2018-04-04T10:30:32.223Z,946.15
2018-04-04T10:31:32.254Z,946.16
2018-04-04T10:32:32.282Z,946.03
2018-04-04T10:33:32.311Z,946.13
2018-04-04T10:34:32.343Z,946.17
2018-04-04T10:35:32.374Z,946.13
2018-04-04T10:36:32.456Z,946.08
2018-04-04T10:37:32.435Z,946.01
2018-04-04T10:38:32.533Z,946.05
2018-04-04T10:39:32.497Z,946.01
2018-04-04T10:40:32.528Z,945.99
2018-04-04T10:41:32.558Z,946.05
2018-04-04T10:42:32.595Z,946.03
2018-04-04T10:43:32.623Z,946.04
2018-04-04T10:44:32.650Z,946.02
2018-04-04T10:45:32.682Z,946.04
2018-04-04T10:46:32.712Z,946
2018-04-04T10:47:32.744Z,945.98
2018-04-04T10:48:32.774Z,946
2018-04-04T10:49:32.806Z,946.06
2018-04-04T10:50:32.916Z,945.99
2018-04-04T10:51:32.916Z,945.95
2018-04-04T10:52:32.899Z,945.98
2018-04-04T10:53:32.930Z,945.98
2018-04-04T10:54:32.972Z,945.97
2018-04-04T10:55:32.994Z,945.98
2018-04-04T10:56:33.027Z,945.9
2018-04-04T10:57:33.060Z,945.82
2018-04-04T10:58:33.093Z,945.86
2018-04-04T10:59:33.126Z,945.82
2018-04-04T11:00:33.157Z,945.8
2018-04-04T11:01:33.189Z,945.78
2018-04-04T11:02:33.223Z,945.81
2018-04-04T11:03:33.256Z,945.79
2018-04-04T11:04:33.290Z,945.82
2018-04-04T11:05:33.320Z,945.81
2018-04-04T11:06:33.406Z,945.87
2018-04-04T11:07:33.390Z,945.81
2018-04-04T11:08:33.424Z,945.78
2018-04-04T11:09:33.454Z,945.76
2018-04-04T11:10:33.488Z,945.75
2018-04-04T11:11:33.524Z,945.82
2018-04-04T11:12:33.555Z,945.86
2018-04-04T11:13:33.592Z,945.8
2018-04-04T11:14:33.623Z,945.77
2018-04-04T11:15:33.657Z,945.77
2018-04-04T11:16:33.691Z,945.8
2018-04-04T11:17:33.734Z,945.76
2018-04-04T11:18:33.758Z,945.76
2018-04-04T11:19:33.797Z,945.69
2018-04-04T11:20:33.835Z,945.76
2018-04-04T11:21:33.911Z,945.76
2018-04-04T11:22:33.903Z,945.75
2018-04-04T11:23:33.930Z,945.81
2018-04-04T11:24:33.966Z,945.8
2018-04-04T11:25:34.000Z,945.76
2018-04-04T11:26:34.036Z,945.69
2018-04-04T11:27:34.066Z,945.57
2018-04-04T11:28:34.104Z,945.58
2018-04-04T11:29:34.139Z,945.54
2018-04-04T11:30:34.174Z,945.58
2018-04-04T11:31:34.213Z,945.58
2018-04-04T11:32:34.259Z,945.54
2018-04-04T11:33:34.283Z,945.54
2018-04-04T11:34:34.319Z,945.42
2018-04-04T11:35:34.346Z,945.44
2018-04-04T11:36:34.381Z,945.36
2018-04-04T11:37:34.416Z,945.43
2018-04-04T11:38:34.455Z,945.38
2018-04-04T11:39:34.484Z,945.43
2018-04-04T11:40:34.517Z,945.42
2018-04-04T11:41:34.553Z,945.41
2018-04-04T11:42:34.587Z,945.38
2018-04-04T11:43:34.623Z,945.39
2018-04-04T11:44:34.654Z,945.45
2018-04-04T11:45:34.687Z,945.4
2018-04-04T11:46:34.723Z,945.4
2018-04-04T11:47:34.756Z,945.37
2018-04-04T11:48:34.788Z,945.38
2018-04-04T11:49:34.825Z,945.37
2018-04-04T11:50:34.856Z,945.41
2018-04-04T11:51:34.892Z,945.38
2018-04-04T11:52:34.925Z,945.37
2018-04-04T11:53:34.957Z,945.32
2018-04-04T11:54:35.008Z,945.24
2018-04-04T11:55:35.027Z,945.2
2018-04-04T11:56:35.064Z,945.26
2018-04-04T11:57:35.095Z,945.25
2018-04-04T11:58:35.128Z,945.24
2018-04-04T11:59:35.164Z,945.27
2018-04-04T12:00:35.207Z,945.25
2018-04-04T12:01:35.236Z,945.28
2018-04-04T12:02:35.264Z,945.23
2018-04-04T12:03:35.313Z,945.22
2018-04-04T12:04:35.336Z,945.17
2018-04-04T12:05:35.419Z,945.13
2018-04-04T12:06:35.404Z,945.11
2018-04-04T12:07:35.443Z,945.08
2018-04-04T12:08:35.474Z,944.97
2018-04-04T12:09:35.514Z,945.04
2018-04-04T12:10:35.546Z,945.02
2018-04-04T12:11:35.594Z,944.97
2018-04-04T12:12:35.644Z,945
2018-04-04T12:13:35.657Z,945.02
2018-04-04T12:14:35.693Z,944.99
2018-04-04T12:15:35.729Z,945.02
2018-04-04T12:16:35.763Z,945.05
2018-04-04T12:17:35.802Z,945.04
2018-04-04T12:18:35.838Z,945.05
2018-04-04T12:19:35.874Z,945.06
2018-04-04T12:20:35.912Z,945.03
2018-04-04T12:21:35.945Z,945.01
2018-04-04T12:22:35.986Z,945.07
2018-04-04T12:23:36.020Z,945.07
2018-04-04T12:24:36.057Z,944.98
2018-04-04T12:25:36.092Z,944.98
2018-04-04T12:26:36.129Z,945
2018-04-04T12:27:36.166Z,945.03
2018-04-04T12:28:36.204Z,945.03
2018-04-04T12:29:36.241Z,945.03
2018-04-04T12:30:36.279Z,945.06
2018-04-04T12:31:36.318Z,945.01